Aérodrome :
LOGIN :

S'inscrire | Disclaimer

   EN    FR    IT 

 










Légende :    VFR   VFR Marginal   IFR   IFR Intensif   IFR Très Intensif
Visi : 
Plafond : 
>= 8 km
>= 3000ft
5 à 8 km
1000 à 3000 ft
1500m à 5 km
500 à 1000 ft
800 à 1500m
200 à 500 ft
< 800m
< 200 ft
Symboles :   Orages  Brouillard  Fortes neiges  Fortes précipitations  Vent > 20 kt
SIGMETs :   Divers  Orages  Givrage  Turbulence  Onde Orograph.  Cendres Volcan.






- Altitude de l'aérodrome : -11 ft
- Code IATA : AMS


EHAM - Amsterdam Schiphol

DERNIER METAR :
  • 022055Z 31007KT CAVOK 15/12 Q1012 NOSIG

METARs EXPIRÉS :
  • 022025Z 30007KT 260V320 CAVOK 16/12 Q1012 NOSIG
  • 021955Z 29006KT CAVOK 16/12 Q1012 NOSIG
  • 021925Z 29008KT CAVOK 17/12 Q1012 NOSIG
  • 021855Z 29007KT 250V320 CAVOK 18/12 Q1013 NOSIG
  • 021825Z 28009KT CAVOK 20/12 Q1013 NOSIG

TAF TAF EHAM
Valide du 02 à 18h jusqu'au 04 à 00h UTC


021705Z 0218/0324 29010KT CAVOK
BECMG 0218/0221 28005KT
PROB30 0302/0305 4000 BR SCT004
BECMG 0308/0311 30012KT
BECMG 0316/0319 33012KT



MET'MAP, la Météo Aéronautique d'un coup d'oeil ! - Copyright ORBIFLY Décembre 2007 - Disclaimer

ORBIFLY MET'MAP TEAM :

Programmation & Développement : Alexandra Zaïnal
Sur une idée originale de : Baudouin d'Aumeries
Assistance à la programmation : Marc-Olivier Méhu
Soutien technique & logistique : Manuel Goepfert

Contact : metmap@orbifly.com




SOURCES & CREDITS :

   NOAA